createdAt,value
2017-10-26T00:02:23.056Z,7.03
2017-10-26T00:04:51.176Z,4.83
2017-10-26T00:07:20.052Z,7.03
2017-10-26T00:09:48.927Z,5.37
2017-10-26T00:12:17.052Z,3.90
2017-10-26T00:14:45.512Z,9.03
2017-10-26T00:17:14.420Z,6.13
2017-10-26T00:19:42.610Z,4.00
2017-10-26T00:22:10.791Z,6.57
2017-10-26T00:24:38.968Z,6.43
2017-10-26T00:27:07.118Z,6.80
2017-10-26T00:29:35.243Z,10.00
2017-10-26T00:32:03.418Z,6.67
2017-10-26T00:34:31.543Z,8.67
2017-10-26T00:36:59.687Z,5.60
2017-10-26T00:39:28.279Z,5.80
2017-10-26T00:41:57.164Z,9.27
2017-10-26T00:44:26.083Z,6.03
2017-10-26T00:46:54.206Z,7.30
2017-10-26T00:49:22.368Z,5.93
2017-10-26T00:51:50.508Z,10.30
2017-10-26T00:54:18.635Z,5.13
2017-10-26T00:56:46.800Z,5.90
2017-10-26T00:59:14.952Z,6.47
2017-10-26T01:01:43.480Z,13.10
2017-10-26T01:04:11.662Z,6.00
2017-10-26T01:06:40.591Z,6.77
2017-10-26T01:09:08.737Z,9.77
2017-10-26T01:11:36.880Z,8.40
2017-10-26T01:14:05.048Z,4.10
2017-10-26T01:16:33.188Z,6.30
2017-10-26T01:19:01.339Z,9.00
2017-10-26T01:21:29.504Z,8.00
2017-10-26T01:23:58.149Z,5.43
2017-10-26T01:26:27.796Z,7.33
2017-10-26T01:28:55.976Z,6.27
2017-10-26T01:31:24.485Z,5.33
2017-10-26T01:33:52.720Z,8.83
2017-10-26T01:36:21.729Z,6.50
2017-10-26T01:38:49.951Z,7.60
2017-10-26T01:41:18.902Z,10.33
2017-10-26T01:43:47.095Z,5.70
2017-10-26T01:46:15.303Z,6.20
2017-10-26T01:48:43.517Z,6.97
2017-10-26T01:51:12.047Z,6.30
2017-10-26T01:53:40.259Z,11.50
2017-10-26T01:56:09.301Z,6.17
2017-10-26T01:58:37.504Z,5.00
2017-10-26T02:01:05.712Z,10.67
2017-10-26T02:03:34.278Z,10.03
2017-10-26T02:06:02.507Z,7.07
2017-10-26T02:08:30.723Z,7.73
2017-10-26T02:10:58.907Z,7.70
2017-10-26T02:13:27.069Z,10.83
2017-10-26T02:15:56.464Z,8.90
2017-10-26T02:18:24.712Z,7.30
2017-10-26T02:20:52.936Z,11.27
2017-10-26T02:23:21.904Z,8.50
2017-10-26T02:25:51.588Z,9.40
2017-10-26T02:28:21.408Z,5.87
2017-10-26T02:31:56.140Z,7.37
2017-10-26T02:34:24.582Z,6.53
2017-10-26T02:36:52.744Z,8.10
2017-10-26T02:39:20.912Z,8.27
2017-10-26T02:41:49.804Z,6.97
2017-10-26T02:44:18.672Z,8.27
2017-10-26T02:46:46.815Z,7.97
2017-10-26T02:49:14.956Z,8.17
2017-10-26T02:51:43.112Z,11.50
2017-10-26T02:54:12.004Z,7.50
2017-10-26T02:56:41.373Z,7.20
2017-10-26T02:59:09.509Z,10.03
2017-10-26T03:01:37.680Z,10.70
2017-10-26T03:04:05.892Z,9.73
2017-10-26T03:06:34.060Z,9.03
2017-10-26T03:09:02.272Z,8.43
2017-10-26T03:11:30.420Z,10.43
2017-10-26T03:13:58.567Z,9.33
2017-10-26T03:16:26.754Z,10.10
2017-10-26T03:18:54.900Z,7.03
2017-10-26T03:21:23.355Z,8.63
2017-10-26T03:23:51.471Z,7.73
2017-10-26T03:26:19.581Z,8.07
2017-10-26T03:28:48.864Z,7.93
2017-10-26T03:31:16.997Z,10.00
2017-10-26T03:33:45.119Z,8.50
2017-10-26T03:36:13.231Z,7.93
2017-10-26T03:38:41.359Z,9.50
2017-10-26T03:41:09.464Z,7.00
2017-10-26T03:43:38.320Z,7.07
2017-10-26T03:46:06.460Z,8.20
2017-10-26T03:48:34.571Z,8.70
2017-10-26T03:51:02.712Z,8.00
2017-10-26T03:53:30.818Z,8.10
2017-10-26T03:55:58.955Z,7.00
2017-10-26T03:58:27.428Z,10.50
2017-10-26T04:00:55.551Z,7.87
2017-10-26T04:03:23.685Z,8.93
2017-10-26T04:05:51.812Z,9.57
2017-10-26T04:08:19.946Z,9.77
2017-10-26T04:10:48.051Z,9.70
2017-10-26T04:13:16.157Z,7.60
2017-10-26T04:15:44.281Z,10.23
2017-10-26T04:18:12.391Z,9.10
2017-10-26T04:20:41.259Z,7.27
2017-10-26T04:23:09.449Z,8.50
2017-10-26T04:25:37.631Z,15.47
2017-10-26T04:28:06.595Z,12.37
2017-10-26T04:30:35.079Z,9.03
2017-10-26T04:33:03.368Z,6.90
2017-10-26T04:35:31.578Z,8.53
2017-10-26T04:37:59.746Z,8.63
2017-10-26T04:40:27.879Z,9.50
2017-10-26T04:42:56.774Z,9.20
2017-10-26T04:45:25.191Z,9.60
2017-10-26T04:47:53.319Z,7.20
2017-10-26T04:50:21.448Z,8.60
2017-10-26T04:52:49.565Z,7.30
2017-10-26T04:55:17.687Z,6.10
2017-10-26T04:57:45.792Z,7.27
2017-10-26T05:00:13.915Z,8.47
2017-10-26T05:02:42.780Z,9.33
2017-10-26T05:05:10.903Z,7.40
2017-10-26T05:07:39.015Z,6.93
2017-10-26T05:10:07.428Z,5.87
2017-10-26T05:12:36.291Z,8.30
2017-10-26T05:15:04.712Z,9.10
2017-10-26T05:17:32.830Z,11.13
2017-10-26T05:20:00.929Z,11.00
2017-10-26T05:22:29.049Z,8.90
2017-10-26T05:24:57.165Z,13.43
2017-10-26T05:27:25.283Z,8.13
2017-10-26T05:29:53.395Z,10.27
2017-10-26T05:32:21.651Z,8.53
2017-10-26T05:34:49.816Z,7.17
2017-10-26T05:37:17.989Z,6.70
2017-10-26T05:39:46.119Z,11.43
2017-10-26T05:42:14.302Z,9.43
2017-10-26T05:44:42.579Z,8.63
2017-10-26T05:47:10.731Z,8.30
2017-10-26T05:49:39.048Z,9.73
2017-10-26T05:52:08.358Z,10.50
2017-10-26T05:54:36.500Z,11.60
2017-10-26T05:57:05.431Z,8.50
2017-10-26T05:59:33.563Z,9.30
2017-10-26T06:02:01.699Z,11.10
2017-10-26T06:04:29.845Z,9.53
2017-10-26T06:06:57.941Z,13.30
2017-10-26T06:09:26.068Z,11.30
2017-10-26T06:11:54.912Z,10.40
2017-10-26T06:14:23.084Z,10.80
2017-10-26T06:16:51.221Z,9.83
2017-10-26T06:19:19.331Z,9.97
2017-10-26T06:21:47.463Z,10.90
2017-10-26T06:24:16.323Z,11.13
2017-10-26T06:26:44.460Z,12.03
2017-10-26T06:29:12.600Z,10.40
2017-10-26T06:31:40.724Z,10.53
2017-10-26T06:34:09.215Z,10.77
2017-10-26T06:36:37.349Z,9.90
2017-10-26T06:39:05.467Z,10.10
2017-10-26T06:41:33.593Z,11.57
2017-10-26T06:44:01.748Z,12.57
2017-10-26T06:46:29.887Z,10.73
2017-10-26T06:48:58.053Z,12.17
2017-10-26T06:51:26.335Z,9.93
2017-10-26T06:53:54.462Z,10.90
2017-10-26T06:56:22.612Z,11.23
2017-10-26T06:58:50.735Z,10.50
2017-10-26T07:01:18.864Z,11.23
2017-10-26T07:03:47.732Z,11.27
2017-10-26T07:06:15.856Z,10.97
2017-10-26T07:08:44.140Z,11.10
2017-10-26T07:11:12.277Z,10.53
2017-10-26T07:13:40.506Z,11.63
2017-10-26T07:16:08.620Z,9.83
2017-10-26T07:18:36.980Z,9.93
2017-10-26T07:21:05.092Z,11.40
2017-10-26T07:23:33.242Z,13.13
2017-10-26T07:26:01.428Z,10.60
2017-10-26T07:28:30.296Z,13.63
2017-10-26T07:30:58.722Z,10.93
2017-10-26T07:33:26.864Z,12.43
2017-10-26T07:35:55.969Z,11.13
2017-10-26T07:38:24.227Z,12.37
2017-10-26T07:40:53.175Z,12.17
2017-10-26T07:43:21.345Z,15.00
2017-10-26T07:45:49.547Z,14.03
2017-10-26T07:48:18.188Z,17.83
2017-10-26T07:50:46.339Z,21.57
2017-10-26T07:53:14.475Z,17.80
2017-10-26T07:55:42.672Z,16.63
2017-10-26T07:58:10.789Z,16.57
2017-10-26T08:00:39.064Z,21.17
2017-10-26T08:03:07.204Z,21.53
2017-10-26T08:05:36.139Z,18.10
2017-10-26T08:08:04.291Z,17.17
2017-10-26T08:10:32.432Z,19.10
2017-10-26T08:13:00.580Z,18.50
2017-10-26T08:15:28.779Z,22.50
2017-10-26T08:17:56.935Z,19.83
2017-10-26T08:20:25.169Z,21.93
2017-10-26T08:22:53.375Z,22.70
2017-10-26T08:25:21.675Z,19.53
2017-10-26T08:27:50.205Z,24.90
2017-10-26T08:30:18.379Z,22.90
2017-10-26T08:32:46.676Z,22.10
2017-10-26T08:35:14.850Z,21.10
2017-10-26T08:37:43.081Z,24.63
2017-10-26T08:40:12.036Z,26.43
2017-10-26T08:42:40.205Z,24.83
2017-10-26T08:45:08.408Z,22.33
2017-10-26T08:47:38.036Z,22.30
2017-10-26T08:50:07.071Z,22.30
2017-10-26T08:52:35.555Z,23.10
2017-10-26T08:55:03.769Z,21.57
2017-10-26T08:57:32.748Z,22.40
2017-10-26T09:00:00.955Z,27.23
2017-10-26T09:02:29.168Z,24.03
2017-10-26T09:04:57.380Z,27.17
2017-10-26T09:07:25.575Z,26.10
2017-10-26T09:09:53.792Z,28.10
2017-10-26T09:12:22.010Z,25.13
2017-10-26T09:14:51.049Z,25.43
2017-10-26T09:17:19.675Z,29.17
2017-10-26T09:19:47.876Z,34.77
2017-10-26T09:22:16.803Z,29.90
2017-10-26T09:24:45.037Z,28.33
2017-10-26T09:27:13.500Z,28.97
2017-10-26T09:29:41.699Z,27.00
2017-10-26T09:32:10.643Z,32.40
2017-10-26T09:34:38.887Z,35.27
2017-10-26T09:37:07.114Z,34.07
2017-10-26T09:39:35.913Z,29.77
2017-10-26T09:42:04.363Z,29.13
2017-10-26T09:44:32.588Z,26.63
2017-10-26T09:47:00.855Z,32.43
2017-10-26T09:49:30.554Z,27.03
2017-10-26T09:51:58.782Z,32.70
2017-10-26T09:54:26.991Z,24.53
2017-10-26T09:56:55.164Z,31.43
2017-10-26T09:59:23.395Z,26.13
2017-10-26T10:01:51.964Z,25.93
2017-10-26T10:04:20.467Z,23.33
2017-10-26T10:06:48.684Z,21.70
2017-10-26T10:09:16.951Z,25.83
2017-10-26T10:11:45.235Z,21.50
2017-10-26T10:14:13.600Z,25.60
2017-10-26T10:16:41.812Z,25.93
2017-10-26T10:19:11.459Z,23.80
2017-10-26T10:21:39.626Z,28.83
2017-10-26T10:24:07.880Z,24.57
2017-10-26T10:26:36.928Z,19.67
2017-10-26T10:29:05.162Z,28.10
2017-10-26T10:31:34.115Z,23.50
2017-10-26T10:34:02.332Z,21.53
2017-10-26T10:36:31.264Z,23.37
2017-10-26T10:38:59.457Z,21.27
2017-10-26T10:41:29.312Z,21.87
2017-10-26T10:43:57.587Z,21.53
2017-10-26T10:46:25.780Z,23.47
2017-10-26T10:48:54.412Z,20.43
2017-10-26T10:51:22.625Z,20.70
2017-10-26T10:53:50.839Z,15.90
2017-10-26T10:56:19.068Z,20.17
2017-10-26T10:58:48.069Z,17.50
2017-10-26T11:01:16.271Z,17.40
2017-10-26T11:03:44.789Z,22.60
2017-10-26T11:06:13.041Z,17.97
2017-10-26T11:08:41.272Z,19.17
2017-10-26T11:11:10.632Z,15.00
2017-10-26T11:13:38.811Z,17.00
2017-10-26T11:16:07.051Z,16.07
2017-10-26T11:18:35.270Z,15.97
2017-10-26T11:21:03.516Z,15.20
2017-10-26T11:23:32.100Z,14.73
2017-10-26T11:26:00.283Z,14.80
2017-10-26T11:28:28.491Z,19.13
2017-10-26T11:30:56.746Z,13.63
2017-10-26T11:33:24.957Z,13.77
2017-10-26T11:35:53.189Z,14.93
2017-10-26T11:38:21.404Z,16.10
2017-10-26T11:40:50.363Z,15.50
2017-10-26T11:43:18.580Z,14.00
2017-10-26T11:45:47.538Z,14.50
2017-10-26T11:48:16.043Z,13.90
2017-10-26T11:50:44.288Z,11.60
2017-10-26T11:53:12.503Z,12.40
2017-10-26T11:55:41.496Z,12.17
2017-10-26T11:58:09.709Z,12.47
2017-10-26T12:00:37.997Z,10.10
2017-10-26T12:03:06.328Z,11.30
2017-10-26T12:05:34.531Z,8.53
2017-10-26T12:08:02.735Z,11.40
2017-10-26T12:10:30.948Z,10.40
2017-10-26T12:12:59.619Z,8.80
2017-10-26T12:15:29.300Z,10.90
2017-10-26T12:17:57.524Z,11.40
2017-10-26T12:20:26.468Z,11.47
2017-10-26T12:22:54.640Z,11.23
2017-10-26T12:25:22.856Z,9.60
2017-10-26T12:27:51.081Z,10.73
2017-10-26T12:30:19.965Z,8.03
2017-10-26T12:32:48.193Z,9.53
2017-10-26T12:35:16.451Z,11.00
2017-10-26T12:37:44.671Z,10.53
2017-10-26T12:40:12.880Z,16.80
2017-10-26T12:42:41.072Z,13.43
2017-10-26T12:45:09.270Z,9.33
2017-10-26T12:47:38.929Z,9.73
2017-10-26T12:50:07.131Z,9.90
2017-10-26T12:52:35.313Z,8.70
2017-10-26T12:55:03.520Z,8.30
2017-10-26T12:57:32.472Z,10.07
2017-10-26T13:00:00.691Z,7.90
2017-10-26T13:02:29.624Z,9.27
2017-10-26T13:04:57.855Z,7.80
2017-10-26T13:07:26.136Z,10.20
2017-10-26T13:09:55.091Z,10.93
2017-10-26T13:12:23.312Z,9.40
2017-10-26T13:14:52.311Z,8.80
2017-10-26T13:17:20.557Z,9.50
2017-10-26T13:19:50.330Z,10.83
2017-10-26T13:22:18.544Z,8.57
2017-10-26T13:24:47.035Z,9.43
2017-10-26T13:27:15.251Z,6.90
2017-10-26T13:29:43.464Z,9.40
2017-10-26T13:32:11.627Z,12.53
2017-10-26T13:34:39.811Z,8.63
2017-10-26T13:37:07.996Z,11.90
2017-10-26T13:39:36.175Z,8.50
2017-10-26T13:42:04.359Z,8.37
2017-10-26T13:44:32.539Z,8.43
2017-10-26T13:47:00.986Z,9.97
2017-10-26T13:49:29.184Z,8.77
2017-10-26T13:51:57.319Z,7.97
2017-10-26T13:54:25.493Z,10.30
2017-10-26T13:56:53.920Z,10.50
2017-10-26T13:59:22.799Z,9.30
2017-10-26T14:01:50.982Z,12.73
2017-10-26T14:04:19.156Z,8.70
2017-10-26T14:06:48.080Z,9.07
2017-10-26T14:09:16.240Z,8.57
2017-10-26T14:11:44.379Z,7.30
2017-10-26T14:14:13.286Z,7.27
2017-10-26T14:16:42.195Z,11.83
2017-10-26T14:19:11.056Z,6.97
2017-10-26T14:21:39.196Z,10.70
2017-10-26T14:24:07.328Z,7.43
2017-10-26T14:26:35.461Z,6.20
2017-10-26T14:29:03.922Z,7.30
2017-10-26T14:31:33.528Z,6.90
2017-10-26T14:34:01.718Z,8.07
2017-10-26T14:36:30.393Z,8.50
2017-10-26T14:38:58.512Z,7.67
2017-10-26T14:41:27.366Z,7.27
2017-10-26T14:43:55.841Z,10.03
2017-10-26T14:46:23.962Z,7.93
2017-10-26T14:48:52.856Z,9.00
2017-10-26T14:51:21.743Z,9.53
2017-10-26T14:53:50.995Z,7.20
2017-10-26T14:56:19.190Z,6.47
2017-10-26T14:58:47.359Z,7.63
2017-10-26T15:01:15.496Z,6.43
2017-10-26T15:03:43.635Z,7.33
2017-10-26T15:06:11.779Z,8.07
2017-10-26T15:08:40.016Z,9.80
2017-10-26T15:11:08.295Z,5.77
2017-10-26T15:13:36.443Z,8.20
2017-10-26T15:16:05.324Z,8.67
2017-10-26T15:18:34.217Z,4.17
2017-10-26T15:21:03.132Z,6.57
2017-10-26T15:23:31.268Z,4.73
2017-10-26T15:25:59.422Z,6.90
2017-10-26T15:28:27.556Z,8.80
2017-10-26T15:30:55.688Z,4.50
2017-10-26T15:33:23.840Z,5.90
2017-10-26T15:35:51.979Z,5.70
2017-10-26T15:38:20.128Z,6.40
2017-10-26T15:40:48.245Z,12.83
2017-10-26T15:43:16.368Z,6.73
2017-10-26T15:45:45.261Z,4.53
2017-10-26T15:48:14.580Z,6.37
2017-10-26T15:50:42.731Z,9.37
2017-10-26T15:53:10.868Z,7.00
2017-10-26T15:55:39.028Z,9.50
2017-10-26T15:58:07.171Z,4.70
2017-10-26T16:00:35.316Z,7.23
2017-10-26T16:03:03.465Z,9.60
2017-10-26T16:05:31.630Z,6.33
2017-10-26T16:08:00.163Z,6.80
2017-10-26T16:10:29.086Z,5.83
2017-10-26T16:12:57.251Z,5.63
2017-10-26T16:15:25.492Z,8.13
2017-10-26T16:17:53.607Z,5.17
2017-10-26T16:20:21.727Z,4.63
2017-10-26T16:22:49.870Z,4.63
2017-10-26T16:25:17.996Z,7.47
2017-10-26T16:27:46.870Z,8.70
2017-10-26T16:30:15.012Z,5.07
2017-10-26T16:32:43.166Z,6.60
2017-10-26T16:35:11.297Z,5.53
2017-10-26T16:37:39.412Z,8.50
2017-10-26T16:40:07.551Z,9.57
2017-10-26T16:42:36.156Z,8.60
2017-10-26T16:45:04.299Z,8.73
2017-10-26T16:47:33.907Z,5.20
2017-10-26T16:50:02.052Z,9.33
2017-10-26T16:52:30.242Z,6.57
2017-10-26T16:54:58.412Z,4.07
2017-10-26T16:57:26.556Z,5.40
2017-10-26T16:59:54.694Z,5.03
2017-10-26T17:02:24.028Z,6.70
2017-10-26T17:04:52.381Z,6.47
2017-10-26T17:07:20.499Z,6.63
2017-10-26T17:09:48.627Z,8.43
2017-10-26T17:12:17.512Z,4.77
2017-10-26T17:14:46.399Z,8.50
2017-10-26T17:17:15.252Z,7.57
2017-10-26T17:19:43.804Z,5.83
2017-10-26T17:22:11.944Z,11.43
2017-10-26T17:24:40.076Z,7.90
2017-10-26T17:27:08.197Z,4.93
2017-10-26T17:29:37.088Z,7.43
2017-10-26T17:32:06.015Z,6.97
2017-10-26T17:34:34.172Z,5.30
2017-10-26T17:37:02.352Z,5.87
2017-10-26T17:39:30.496Z,11.03
2017-10-26T17:41:58.611Z,6.63
2017-10-26T17:44:26.739Z,8.77
2017-10-26T17:46:55.837Z,6.37
2017-10-26T17:49:24.975Z,7.20
2017-10-26T17:51:53.085Z,6.70
2017-10-26T17:54:23.555Z,4.67
2017-10-26T17:56:51.720Z,5.10
2017-10-26T17:59:19.852Z,8.23
2017-10-26T18:01:48.007Z,6.77
2017-10-26T18:04:16.388Z,10.83
2017-10-26T18:06:44.550Z,11.20
2017-10-26T18:09:12.720Z,6.03
2017-10-26T18:11:40.848Z,11.40
2017-10-26T18:14:08.991Z,5.00
2017-10-26T18:16:37.159Z,6.53
2017-10-26T18:19:05.344Z,7.87
2017-10-26T18:21:33.784Z,9.33
2017-10-26T18:24:01.932Z,10.00
2017-10-26T18:26:30.083Z,8.90
2017-10-26T18:28:58.224Z,9.80
2017-10-26T18:31:26.367Z,8.87
2017-10-26T18:33:54.504Z,7.80
2017-10-26T18:36:22.660Z,7.03
2017-10-26T18:38:50.807Z,8.10
2017-10-26T18:41:18.953Z,11.23
2017-10-26T18:43:47.129Z,7.00
2017-10-26T18:46:15.284Z,9.87
2017-10-26T18:48:43.419Z,8.93
2017-10-26T18:51:11.586Z,4.43
2017-10-26T18:53:39.738Z,9.30
2017-10-26T18:56:08.620Z,11.47
2017-10-26T18:58:37.518Z,8.03
2017-10-26T19:01:06.404Z,5.43
2017-10-26T19:03:35.283Z,10.47
2017-10-26T19:06:04.166Z,10.30
2017-10-26T19:08:32.657Z,8.37
2017-10-26T19:11:01.523Z,9.00
2017-10-26T19:13:29.662Z,7.03
2017-10-26T19:15:57.972Z,6.57
2017-10-26T19:18:26.103Z,6.20
2017-10-26T19:20:54.233Z,10.83
2017-10-26T19:23:22.348Z,7.53
2017-10-26T19:25:50.804Z,15.53
2017-10-26T19:28:19.680Z,7.67
2017-10-26T19:30:47.833Z,8.13
2017-10-26T19:33:16.032Z,9.97
2017-10-26T19:35:44.918Z,7.17
2017-10-26T19:38:13.419Z,8.93
2017-10-26T19:40:42.416Z,7.60
2017-10-26T19:43:10.734Z,7.73
2017-10-26T19:45:38.925Z,9.70
2017-10-26T19:48:07.088Z,8.50
2017-10-26T19:50:35.299Z,17.00
2017-10-26T19:53:03.470Z,13.60
2017-10-26T19:55:31.619Z,8.40
2017-10-26T19:58:00.352Z,5.67
2017-10-26T20:00:28.552Z,6.27
2017-10-26T20:02:56.735Z,7.00
2017-10-26T20:05:24.876Z,6.80
2017-10-26T20:07:53.743Z,10.03
2017-10-26T20:10:21.908Z,9.07
2017-10-26T20:12:51.548Z,8.20
2017-10-26T20:15:20.767Z,9.00
2017-10-26T20:17:49.244Z,10.53
2017-10-26T20:20:17.401Z,7.40
2017-10-26T20:22:46.569Z,9.30
2017-10-26T20:25:14.759Z,7.97
2017-10-26T20:27:42.935Z,10.30
2017-10-26T20:30:11.111Z,8.60
2017-10-26T20:32:40.018Z,4.00
2017-10-26T20:35:08.928Z,8.97
2017-10-26T20:37:37.159Z,6.73
2017-10-26T20:40:05.435Z,5.63
2017-10-26T20:42:33.616Z,6.23
2017-10-26T20:45:32.880Z,9.83
2017-10-26T20:48:01.064Z,10.30
2017-10-26T20:50:33.758Z,5.57
2017-10-26T20:55:09.221Z,12.20
2017-10-26T20:59:45.139Z,7.90
2017-10-26T21:04:20.487Z,8.90
2017-10-26T21:06:48.635Z,9.73
2017-10-26T21:09:21.385Z,9.83
2017-10-26T21:11:54.075Z,13.27
2017-10-26T21:14:30.736Z,6.57
2017-10-26T21:16:59.156Z,7.93
2017-10-26T21:19:28.041Z,7.93
2017-10-26T21:21:56.160Z,7.00
2017-10-26T21:24:24.283Z,7.17
2017-10-26T21:26:52.435Z,8.53
2017-10-26T21:29:20.551Z,7.47
2017-10-26T21:31:49.421Z,5.83
2017-10-26T21:34:17.582Z,7.90
2017-10-26T21:36:45.729Z,7.10
2017-10-26T21:39:14.167Z,8.17
2017-10-26T21:41:42.324Z,6.70
2017-10-26T21:44:10.439Z,5.73
2017-10-26T21:46:39.316Z,7.60
2017-10-26T21:49:07.458Z,6.70
2017-10-26T21:51:35.589Z,6.80
2017-10-26T21:54:03.782Z,5.63
2017-10-26T21:56:31.888Z,5.73
2017-10-26T21:59:00.533Z,7.33
2017-10-26T22:01:28.688Z,7.37
2017-10-26T22:03:56.856Z,6.33
2017-10-26T22:06:25.007Z,9.80
2017-10-26T22:08:53.166Z,9.00
2017-10-26T22:11:21.311Z,7.50
2017-10-26T22:13:49.655Z,11.00
2017-10-26T22:16:17.834Z,7.90
2017-10-26T22:18:45.983Z,11.23
2017-10-26T22:21:14.627Z,9.60
2017-10-26T22:23:42.911Z,7.10
2017-10-26T22:26:11.083Z,6.60
2017-10-26T22:28:39.272Z,8.47
2017-10-26T22:31:07.440Z,8.33
2017-10-26T22:33:35.578Z,6.67
2017-10-26T22:36:04.112Z,6.03
2017-10-26T22:38:32.255Z,6.23
2017-10-26T22:41:00.414Z,7.03
2017-10-26T22:43:28.988Z,7.07
2017-10-26T22:48:40.235Z,11.93
2017-10-26T22:51:08.409Z,12.83
2017-10-26T22:53:36.532Z,6.03
2017-10-26T22:56:05.003Z,9.13
2017-10-26T22:58:33.362Z,9.50
2017-10-26T23:01:01.616Z,5.43
2017-10-26T23:03:29.884Z,7.60
2017-10-26T23:05:58.015Z,5.03
2017-10-26T23:08:27.583Z,8.10
2017-10-26T23:10:56.443Z,9.27
2017-10-26T23:13:24.620Z,8.30
2017-10-26T23:15:52.747Z,12.23
2017-10-26T23:18:20.887Z,5.13
2017-10-26T23:20:49.776Z,7.57
2017-10-26T23:23:18.837Z,5.27
2017-10-26T23:25:46.984Z,8.20
2017-10-26T23:28:15.172Z,5.37
2017-10-26T23:30:43.305Z,6.73
2017-10-26T23:33:12.608Z,8.20
2017-10-26T23:35:41.504Z,8.67
2017-10-26T23:38:10.388Z,7.30
2017-10-26T23:40:39.280Z,6.73
2017-10-26T23:43:08.151Z,10.83
2017-10-26T23:45:36.321Z,9.50
2017-10-26T23:48:04.550Z,8.70
2017-10-26T23:50:32.676Z,5.30
2017-10-26T23:53:00.829Z,8.10
2017-10-26T23:55:30.027Z,5.50
2017-10-26T23:57:58.162Z,7.93
